Time;durP1;ratioP1;P1;durP2;ratioP2;P2;SDS_P1;SDS_P2;PMS_P1;PMS_P2;Temp;Humidity;BMP_temperature;BMP_pressure;BME280_temperature;BME280_humidity;BME280_pressure;Samples;Min_cycle;Max_cycle;Signal;HPM_P1;HPM_P2
2021/10/03 00:00:56;;;;;;;35.37;20.07;;;11.10;99.90;;;;;;4363765;32;20152;-65
2021/10/03 00:03:37;;;;;;;37.97;21.63;;;11.00;99.90;;;;;;4363815;33;20204;-65
2021/10/03 00:06:17;;;;;;;38.00;20.77;;;11.00;99.90;;;;;;4365326;32;20183;-65
2021/10/03 00:09:07;;;;;;;34.33;20.30;;;11.00;99.90;;;;;;4365398;32;20144;-65
2021/10/03 00:11:42;;;;;;;38.50;20.67;;;10.90;99.90;;;;;;4363552;32;20180;-66
2021/10/03 00:14:20;;;;;;;37.13;20.57;;;11.00;99.90;;;;;;4365355;32;20148;-65
2021/10/03 00:16:58;;;;;;;31.20;19.23;;;10.90;99.90;;;;;;4363292;32;20198;-66
2021/10/03 00:20:01;;;;;;;36.93;20.97;;;10.90;99.90;;;;;;4363649;33;20223;-66
2021/10/03 00:22:40;;;;;;;35.67;20.70;;;10.90;99.90;;;;;;4419050;32;20182;-70
2021/10/03 00:25:32;;;;;;;34.03;20.07;;;10.90;99.90;;;;;;4419381;32;20433;-66
2021/10/03 00:28:19;;;;;;;36.20;21.33;;;10.90;99.90;;;;;;4412540;32;20196;-66
2021/10/03 00:30:58;;;;;;;39.30;20.13;;;10.80;99.90;;;;;;4412568;32;20140;-66
2021/10/03 00:33:42;;;;;;;;;;;;;;;;;;;;;
2021/10/03 00:36:26;;;;;;;35.50;20.93;;;10.80;99.90;;;;;;4410402;32;20521;-66
2021/10/03 00:38:58;;;;;;;36.23;20.20;;;10.70;99.90;;;;;;4410265;32;20205;-66
2021/10/03 00:41:47;;;;;;;36.07;20.57;;;10.70;99.90;;;;;;4412117;32;20139;-66
2021/10/03 00:44:29;;;;;;;34.77;20.73;;;10.60;99.90;;;;;;4410192;32;20139;-66
2021/10/03 00:47:26;;;;;;;33.13;20.13;;;10.60;99.90;;;;;;4411317;32;20205;-66
2021/10/03 00:50:15;;;;;;;33.57;19.73;;;10.60;99.90;;;;;;4410186;32;20139;-66
2021/10/03 00:52:55;;;;;;;35.60;19.80;;;10.60;99.90;;;;;;4411390;32;20159;-66
2021/10/03 00:55:33;;;;;;;36.37;20.70;;;10.50;99.90;;;;;;4410130;32;20135;-66
2021/10/03 00:58:13;;;;;;;34.80;20.97;;;10.60;99.90;;;;;;4420443;32;20174;-65
2021/10/03 01:00:54;;;;;;;37.00;21.00;;;10.50;99.90;;;;;;4413459;32;20169;-66
2021/10/03 01:03:35;;;;;;;33.23;20.40;;;10.50;99.90;;;;;;4411880;32;20147;-66
2021/10/03 01:06:18;;;;;;;37.80;19.83;;;10.50;99.90;;;;;;4411942;32;20169;-66
2021/10/03 01:09:08;;;;;;;34.63;20.00;;;10.50;99.90;;;;;;4411674;32;20196;-66
2021/10/03 01:11:37;;;;;;;35.17;20.00;;;10.50;99.90;;;;;;4409837;32;20159;-66
2021/10/03 01:14:33;;;;;;;34.67;20.03;;;10.40;99.90;;;;;;4411500;32;20143;-66
2021/10/03 01:17:10;;;;;;;33.80;20.23;;;10.40;99.90;;;;;;4411405;32;20158;-66
2021/10/03 01:20:14;;;;;;;36.20;20.63;;;10.40;99.90;;;;;;4409543;32;20373;-66
2021/10/03 01:23:09;;;;;;;36.47;20.60;;;10.40;99.90;;;;;;4411440;32;20419;-66
2021/10/03 01:25:49;;;;;;;34.53;19.63;;;10.40;99.90;;;;;;4409589;32;20185;-66
2021/10/03 01:28:31;;;;;;;33.37;20.00;;;10.40;99.90;;;;;;4411606;32;20169;-66
2021/10/03 01:31:11;;;;;;;33.57;19.90;;;10.40;99.90;;;;;;4411368;32;20135;-66
2021/10/03 01:33:45;;;;;;;31.67;19.20;;;10.30;99.90;;;;;;4409160;32;20200;-66
2021/10/03 01:36:42;;;;;;;33.33;19.23;;;10.30;99.90;;;;;;4411083;32;20128;-66
2021/10/03 01:39:21;;;;;;;36.40;20.90;;;10.30;99.90;;;;;;4411546;32;20146;-66
2021/10/03 01:41:51;;;;;;;36.80;20.10;;;10.30;99.90;;;;;;4395590;32;20263;-66
2021/10/03 01:44:22;;;;;;;35.73;20.33;;;10.30;99.90;;;;;;4411089;32;20189;-67
2021/10/03 01:47:05;;;;;;;37.57;20.80;;;10.30;99.90;;;;;;4411285;32;20166;-66
2021/10/03 01:49:53;;;;;;;32.90;20.43;;;10.30;99.90;;;;;;4411198;32;20202;-66
2021/10/03 01:52:39;;;;;;;35.63;20.40;;;10.30;99.90;;;;;;4411188;32;20412;-66
2021/10/03 01:55:21;;;;;;;36.20;20.70;;;10.30;99.90;;;;;;4410229;32;20213;-66
2021/10/03 01:58:06;;;;;;;34.93;20.37;;;10.20;99.90;;;;;;4410800;32;20201;-66
2021/10/03 02:00:58;;;;;;;36.67;21.10;;;10.20;99.90;;;;;;4410916;32;20159;-67
2021/10/03 02:03:36;;;;;;;33.60;19.97;;;10.30;99.90;;;;;;4408523;32;20143;-66
2021/10/03 02:06:18;;;;;;;35.53;20.23;;;10.20;99.90;;;;;;4408907;32;20190;-66
2021/10/03 02:09:01;;;;;;;37.37;20.93;;;10.20;99.90;;;;;;4410746;32;20198;-66
2021/10/03 02:11:39;;;;;;;36.40;21.43;;;10.20;99.90;;;;;;4410515;32;20139;-66
2021/10/03 02:14:21;;;;;;;36.63;20.67;;;10.10;99.90;;;;;;4410661;32;20166;-66
2021/10/03 02:17:06;;;;;;;34.00;19.67;;;10.10;99.90;;;;;;4410756;32;20131;-66
2021/10/03 02:19:45;;;;;;;36.20;20.30;;;10.10;99.90;;;;;;4409133;32;20444;-65
2021/10/03 02:22:20;;;;;;;35.97;20.47;;;10.10;99.90;;;;;;4410149;32;20144;-65
2021/10/03 02:25:30;;;;;;;36.00;20.47;;;10.10;99.90;;;;;;4333034;33;20189;-66
2021/10/03 02:28:02;;;;;;;34.53;20.83;;;10.10;99.90;;;;;;4342322;32;20160;-66
2021/10/03 02:30:41;;;;;;;38.97;20.57;;;10.10;99.90;;;;;;4350826;32;20439;-65
2021/10/03 02:33:14;;;;;;;34.30;19.93;;;10.10;99.90;;;;;;4347393;33;20206;-66
2021/10/03 02:36:04;;;;;;;34.97;19.33;;;10.10;99.90;;;;;;4346467;33;20172;-66
2021/10/03 02:38:46;;;;;;;34.17;19.57;;;10.10;99.90;;;;;;4347855;33;20434;-65
2021/10/03 02:41:33;;;;;;;34.13;19.83;;;10.00;99.90;;;;;;4348276;33;20175;-66
2021/10/03 02:44:11;;;;;;;32.73;19.30;;;10.00;99.90;;;;;;4346498;33;20212;-66
2021/10/03 02:47:11;;;;;;;32.53;19.53;;;10.00;99.90;;;;;;4348224;33;20152;-65
2021/10/03 02:49:57;;;;;;;31.33;19.17;;;10.00;99.90;;;;;;4367528;32;20428;-65
2021/10/03 02:52:25;;;;;;;35.60;20.63;;;9.90;99.90;;;;;;4380051;32;20161;-65
2021/10/03 02:55:07;;;;;;;33.07;19.27;;;9.90;99.90;;;;;;4380029;32;20140;-66
2021/10/03 02:57:45;;;;;;;36.97;19.67;;;9.90;99.90;;;;;;4379680;32;20221;-66
2021/10/03 03:00:26;;;;;;;31.03;19.20;;;9.90;99.90;;;;;;4378303;32;20447;-65
2021/10/03 03:02:57;;;;;;;34.20;18.87;;;9.90;99.90;;;;;;4378618;32;20162;-65
2021/10/03 03:05:35;;;;;;;32.13;18.63;;;9.90;99.90;;;;;;4378223;32;20192;-66
2021/10/03 03:08:11;;;;;;;32.87;18.80;;;9.90;99.90;;;;;;4378098;32;20197;-66
2021/10/03 03:10:49;;;;;;;31.27;19.27;;;9.90;99.90;;;;;;4378159;32;20457;-66
2021/10/03 03:13:31;;;;;;;27.63;17.77;;;9.90;99.90;;;;;;4378918;32;20471;-66
2021/10/03 03:16:15;;;;;;;30.17;17.77;;;9.90;99.90;;;;;;4379785;32;20423;-66
2021/10/03 03:18:57;;;;;;;32.60;18.80;;;9.90;99.90;;;;;;4377958;32;20175;-66
2021/10/03 03:22:03;;;;;;;31.83;18.57;;;9.90;99.90;;;;;;4378134;32;20181;-66
2021/10/03 03:24:36;;;;;;;32.50;18.13;;;9.90;99.90;;;;;;4362671;32;20209;-66
2021/10/03 03:27:22;;;;;;;31.57;18.40;;;9.80;99.90;;;;;;4361986;32;20509;-66
2021/10/03 03:30:17;;;;;;;30.60;19.03;;;9.80;99.90;;;;;;4361036;33;20479;-66
2021/10/03 03:32:56;;;;;;;30.87;17.87;;;9.80;99.90;;;;;;4361958;33;20174;-66
2021/10/03 03:35:32;;;;;;;32.43;18.40;;;9.80;99.90;;;;;;4360812;33;20194;-66
2021/10/03 03:38:03;;;;;;;32.17;18.73;;;9.80;99.90;;;;;;4360512;33;20197;-66
2021/10/03 03:40:43;;;;;;;31.43;18.23;;;9.80;99.90;;;;;;4362437;33;20178;-66
2021/10/03 03:43:32;;;;;;;31.80;18.33;;;9.80;99.90;;;;;;4362271;33;20238;-66
2021/10/03 03:46:20;;;;;;;32.13;18.57;;;9.70;99.90;;;;;;4362694;33;20164;-66
2021/10/03 03:49:19;;;;;;;29.40;17.77;;;9.70;99.90;;;;;;4360962;33;20205;-66
2021/10/03 03:52:01;;;;;;;30.30;17.63;;;9.60;99.90;;;;;;4361678;33;20202;-66
2021/10/03 03:58:18;;;;;;;30.80;17.77;;;9.70;99.90;;;;;;4360299;33;20182;-66
2021/10/03 04:00:54;;;;;;;32.67;17.87;;;9.60;99.90;;;;;;4368587;32;20147;-66
2021/10/03 04:03:55;;;;;;;31.23;18.60;;;9.60;99.90;;;;;;4393573;32;20213;-66
2021/10/03 04:06:30;;;;;;;30.80;18.07;;;9.60;99.90;;;;;;4396389;32;20156;-66
2021/10/03 04:09:22;;;;;;;30.17;17.77;;;9.60;99.90;;;;;;4398280;32;20214;-67
2021/10/03 04:11:51;;;;;;;29.47;18.10;;;9.60;99.90;;;;;;4394722;32;20136;-66
2021/10/03 04:14:32;;;;;;;32.03;17.73;;;9.60;99.90;;;;;;4393771;32;20162;-66
2021/10/03 04:17:12;;;;;;;30.37;17.90;;;9.50;99.90;;;;;;4394555;32;20135;-67
2021/10/03 04:20:05;;;;;;;27.57;16.70;;;9.60;99.90;;;;;;4396028;32;20549;-66
2021/10/03 04:22:41;;;;;;;29.63;17.50;;;9.50;99.90;;;;;;4404242;32;20174;-66
2021/10/03 04:25:28;;;;;;;31.40;17.50;;;9.50;99.90;;;;;;4410515;32;20166;-66
2021/10/03 04:28:07;;;;;;;29.33;17.17;;;9.50;99.90;;;;;;4410568;32;20143;-66
2021/10/03 04:30:48;;;;;;;30.83;17.93;;;9.50;99.90;;;;;;4410447;32;20170;-66
2021/10/03 04:33:25;;;;;;;29.93;18.40;;;9.50;99.90;;;;;;4415736;32;20146;-66
2021/10/03 04:35:58;;;;;;;30.20;17.27;;;9.50;99.90;;;;;;4427264;32;20135;-65
2021/10/03 04:38:47;;;;;;;32.43;18.03;;;9.50;99.90;;;;;;4426307;32;20143;-66
2021/10/03 04:41:49;;;;;;;32.07;18.57;;;9.50;99.90;;;;;;4427182;32;20194;-66
2021/10/03 04:44:33;;;;;;;32.33;17.93;;;9.50;99.90;;;;;;4425568;32;20139;-65
2021/10/03 04:47:18;;;;;;;27.80;17.30;;;9.50;99.90;;;;;;4427194;32;20204;-67
2021/10/03 04:49:57;;;;;;;27.53;17.27;;;9.40;99.90;;;;;;4427244;32;20130;-66
2021/10/03 04:52:33;;;;;;;29.40;17.50;;;9.40;99.90;;;;;;4428122;32;20169;-65
2021/10/03 04:55:17;;;;;;;32.10;17.83;;;9.40;99.90;;;;;;4427273;32;20183;-64
2021/10/03 04:57:59;;;;;;;29.83;17.43;;;9.40;99.90;;;;;;4425562;32;20179;-65
2021/10/03 05:00:43;;;;;;;32.60;18.07;;;9.40;99.90;;;;;;4425618;32;20206;-66
2021/10/03 05:03:20;;;;;;;32.47;18.97;;;9.30;99.90;;;;;;4426440;32;20171;-65
2021/10/03 05:06:07;;;;;;;28.83;18.03;;;9.40;99.90;;;;;;4427072;32;20221;-65
2021/10/03 05:08:52;;;;;;;29.80;17.50;;;9.40;99.90;;;;;;4427072;32;20486;-65
2021/10/03 05:11:41;;;;;;;30.67;17.60;;;9.40;99.90;;;;;;4426798;32;20282;-66
2021/10/03 05:14:14;;;;;;;32.17;17.37;;;9.50;99.90;;;;;;4426645;32;20147;-65
2021/10/03 05:16:46;;;;;;;33.67;18.20;;;9.40;99.90;;;;;;4419748;32;20196;-65
2021/10/03 05:19:26;;;;;;;30.47;17.07;;;9.50;99.90;;;;;;4414195;32;20147;-65
2021/10/03 05:22:02;;;;;;;32.77;17.33;;;9.50;99.90;;;;;;4411777;32;20135;-65
2021/10/03 05:24:41;;;;;;;31.27;16.97;;;9.50;99.90;;;;;;4409913;32;20194;-65
2021/10/03 05:27:22;;;;;;;30.40;17.37;;;9.50;99.90;;;;;;4411367;32;20201;-66
2021/10/03 05:30:03;;;;;;;29.43;17.27;;;9.60;99.90;;;;;;4411627;32;20174;-66
2021/10/03 05:32:50;;;;;;;31.00;17.47;;;9.60;99.90;;;;;;4411132;32;20455;-67
2021/10/03 05:35:32;;;;;;;27.80;16.63;;;9.70;99.90;;;;;;4411321;32;20168;-66
2021/10/03 05:38:29;;;;;;;29.67;16.30;;;9.70;99.90;;;;;;4410342;32;20183;-66
2021/10/03 05:41:15;;;;;;;26.33;15.63;;;9.80;99.90;;;;;;4411277;32;20254;-66
2021/10/03 05:44:14;;;;;;;26.90;16.03;;;9.80;99.90;;;;;;4409902;32;20269;-66
2021/10/03 05:47:09;;;;;;;29.90;16.57;;;9.90;99.90;;;;;;4411194;32;20217;-66
2021/10/03 05:50:22;;;;;;;29.83;16.07;;;10.00;99.90;;;;;;4330074;33;20192;-66
2021/10/03 05:53:07;;;;;;;26.67;15.50;;;10.10;99.90;;;;;;4334399;33;20475;-65
2021/10/03 05:55:56;;;;;;;28.77;16.23;;;10.10;99.90;;;;;;4340504;33;20241;-66
2021/10/03 05:58:37;;;;;;;27.60;17.03;;;10.10;99.90;;;;;;4334159;33;20203;-66
2021/10/03 06:01:20;;;;;;;25.33;15.73;;;10.20;99.90;;;;;;4332593;33;20533;-66
2021/10/03 06:04:07;;;;;;;27.97;16.23;;;10.20;99.90;;;;;;4333192;33;20168;-67
2021/10/03 06:06:47;;;;;;;23.40;15.23;;;10.20;99.90;;;;;;4333887;33;20172;-67
2021/10/03 06:09:32;;;;;;;27.77;15.57;;;10.20;99.90;;;;;;4334161;33;20145;-66
2021/10/03 06:12:14;;;;;;;25.93;15.10;;;10.20;99.90;;;;;;4332364;33;20231;-66
2021/10/03 06:14:51;;;;;;;23.83;14.97;;;10.20;99.90;;;;;;4333042;33;20179;-65
2021/10/03 06:17:32;;;;;;;26.10;15.57;;;10.20;99.90;;;;;;4332976;33;20133;-65
2021/10/03 06:20:08;;;;;;;26.57;15.87;;;10.20;99.90;;;;;;4331676;33;20172;-66
2021/10/03 06:22:40;;;;;;;28.23;15.53;;;10.30;99.90;;;;;;4333375;33;20173;-67
2021/10/03 06:25:27;;;;;;;27.43;16.30;;;10.30;99.90;;;;;;4332196;33;20542;-66
2021/10/03 06:28:23;;;;;;;23.73;14.83;;;10.40;99.90;;;;;;4410994;32;20131;-66
2021/10/03 06:31:04;;;;;;;25.07;14.97;;;10.40;99.90;;;;;;4399966;32;20167;-66
2021/10/03 06:33:48;;;;;;;27.03;15.40;;;10.50;99.90;;;;;;4407197;32;20171;-66
2021/10/03 06:36:23;;;;;;;29.53;15.37;;;10.50;99.90;;;;;;4409967;32;20188;-65
2021/10/03 06:39:00;;;;;;;23.90;14.63;;;10.60;99.90;;;;;;4410418;32;20469;-66
2021/10/03 06:42:12;;;;;;;24.57;15.33;;;10.70;99.90;;;;;;4410461;32;20201;-67
2021/10/03 06:44:42;;;;;;;24.53;15.20;;;10.80;99.90;;;;;;4409891;32;20147;-66
2021/10/03 06:47:29;;;;;;;24.70;14.87;;;10.80;99.90;;;;;;4408482;32;20202;-66
2021/10/03 06:50:08;;;;;;;27.20;15.20;;;11.00;99.90;;;;;;4408321;32;20478;-66
2021/10/03 06:53:01;;;;;;;24.90;14.90;;;11.10;99.90;;;;;;4410383;32;20196;-66
2021/10/03 06:58:53;;;;;;;21.60;13.70;;;11.20;99.90;;;;;;4392816;32;20164;-66
2021/10/03 07:01:37;;;;;;;23.00;14.27;;;11.40;99.90;;;;;;4392259;32;20240;-66
2021/10/03 07:04:22;;;;;;;21.47;13.23;;;11.40;99.90;;;;;;4392729;32;20206;-65
2021/10/03 07:07:10;;;;;;;22.53;13.77;;;11.50;99.90;;;;;;4392895;32;20136;-66
2021/10/03 07:10:16;;;;;;;22.80;14.50;;;11.50;99.90;;;;;;4392876;32;20144;-67
2021/10/03 07:12:52;;;;;;;20.57;13.47;;;11.50;99.90;;;;;;4390840;32;20530;-67
2021/10/03 07:15:51;;;;;;;23.63;13.97;;;11.60;99.90;;;;;;4392623;32;20155;-66
2021/10/03 07:18:30;;;;;;;22.67;13.60;;;11.60;99.90;;;;;;4346396;33;20223;-66
2021/10/03 07:21:03;;;;;;;23.47;13.40;;;11.60;99.90;;;;;;4346618;33;20207;-66
2021/10/03 07:23:47;;;;;;;23.97;13.73;;;11.70;99.90;;;;;;4342717;33;20444;-66
2021/10/03 07:26:33;;;;;;;22.97;13.87;;;11.80;99.90;;;;;;4337692;33;20204;-67
2021/10/03 07:29:10;;;;;;;22.00;13.17;;;11.90;99.90;;;;;;4339127;33;20381;-67
2021/10/03 07:32:00;;;;;;;22.73;13.40;;;11.90;99.90;;;;;;4332495;33;20167;-66
2021/10/03 07:34:48;;;;;;;22.97;13.67;;;11.90;99.90;;;;;;4332986;33;20253;-66
2021/10/03 07:37:27;;;;;;;23.03;13.67;;;12.00;99.90;;;;;;4360840;33;20195;-66
2021/10/03 07:40:17;;;;;;;21.77;13.50;;;12.10;99.90;;;;;;4362128;32;20178;-66
2021/10/03 07:43:09;;;;;;;22.57;14.30;;;12.20;99.90;;;;;;4362300;33;20195;-66
2021/10/03 07:45:53;;;;;;;21.03;13.37;;;12.30;99.90;;;;;;4362315;33;20190;-66
2021/10/03 07:48:32;;;;;;;21.83;12.90;;;12.40;99.90;;;;;;4360265;32;20174;-65
2021/10/03 07:51:27;;;;;;;21.27;12.63;;;12.50;99.90;;;;;;4302219;33;20149;-65
2021/10/03 07:54:02;;;;;;;21.23;13.77;;;12.60;99.90;;;;;;4303749;33;20274;-65
2021/10/03 07:56:35;;;;;;;22.83;13.33;;;12.60;99.90;;;;;;4345958;33;20506;-65
2021/10/03 07:59:12;;;;;;;22.10;12.53;;;12.80;99.90;;;;;;4347165;33;20148;-65
2021/10/03 08:02:10;;;;;;;20.63;12.47;;;13.10;99.90;;;;;;4348495;33;20156;-65
2021/10/03 08:04:48;;;;;;;20.83;12.00;;;13.60;99.90;;;;;;4349818;33;20451;-66
2021/10/03 08:07:23;;;;;;;22.67;12.10;;;14.10;99.90;;;;;;4350529;33;20205;-65
2021/10/03 08:09:57;;;;;;;19.27;11.10;;;14.70;99.90;;;;;;4352213;32;20156;-65
2021/10/03 08:12:34;;;;;;;19.50;11.80;;;15.00;99.90;;;;;;4355003;33;20156;-66
2021/10/03 08:15:12;;;;;;;16.33;11.13;;;15.20;99.90;;;;;;4348940;33;20201;-66
2021/10/03 08:17:44;;;;;;;16.53;11.30;;;15.50;99.90;;;;;;4350113;33;20287;-66
2021/10/03 08:20:42;;;;;;;15.83;10.73;;;15.80;99.90;;;;;;4348485;33;20170;-65
2021/10/03 08:23:16;;;;;;;16.37;10.57;;;16.20;99.90;;;;;;4349991;33;20199;-66
2021/10/03 08:26:09;;;;;;;16.87;10.50;;;16.50;99.90;;;;;;4348177;33;20215;-66
2021/10/03 08:29:02;;;;;;;16.17;10.30;;;16.80;99.90;;;;;;4386830;32;20203;-65
2021/10/03 08:31:45;;;;;;;16.30;10.30;;;17.10;99.90;;;;;;4410042;32;20223;-66
2021/10/03 08:34:32;;;;;;;15.40;9.87;;;17.40;99.90;;;;;;4347946;33;20219;-67
2021/10/03 08:37:26;;;;;;;16.93;9.57;;;17.90;99.90;;;;;;4289554;33;20153;-66
2021/10/03 08:40:15;;;;;;;16.53;9.63;;;18.30;99.90;;;;;;4291008;33;20232;-67
2021/10/03 08:42:52;;;;;;;15.60;10.13;;;18.70;99.90;;;;;;4291207;33;20493;-66
2021/10/03 08:45:22;;;;;;;16.27;9.63;;;19.00;99.90;;;;;;4289347;33;20234;-65
2021/10/03 08:47:57;;;;;;;16.63;10.30;;;19.20;99.90;;;;;;4291384;33;20143;-66
2021/10/03 08:50:37;;;;;;;15.27;10.37;;;19.30;99.90;;;;;;4290053;33;20153;-66
2021/10/03 08:53:13;;;;;;;16.83;9.73;;;19.40;99.90;;;;;;4290763;33;20536;-67
2021/10/03 08:55:56;;;;;;;15.70;9.43;;;19.60;99.90;;;;;;4289216;33;20165;-67
2021/10/03 08:58:51;;;;;;;16.43;9.50;;;19.60;99.90;;;;;;4323157;32;20186;-67
2021/10/03 09:01:51;;;;;;;14.93;9.43;;;19.80;99.90;;;;;;4370697;32;20232;-67
2021/10/03 09:04:34;;;;;;;15.83;9.60;;;19.80;99.90;;;;;;4362383;32;20156;-66
2021/10/03 09:07:27;;;;;;;15.53;9.63;;;19.90;99.90;;;;;;4366553;32;20174;-66
2021/10/03 09:10:14;;;;;;;12.87;9.30;;;20.40;99.90;;;;;;4410553;32;20264;-67
2021/10/03 09:13:08;;;;;;;16.77;9.50;;;20.40;99.90;;;;;;4409633;32;20143;-66
2021/10/03 09:16:48;;;;;;;14.23;9.63;;;20.60;99.90;;;;;;4409535;32;20147;-67
2021/10/03 09:20:01;;;;;;;16.93;10.03;;;20.70;99.90;;;;;;4409521;32;20445;-67
2021/10/03 09:23:00;;;;;;;17.00;9.80;;;20.80;99.90;;;;;;4410419;32;20154;-67
2021/10/03 09:25:58;;;;;;;13.93;9.10;;;20.80;99.90;;;;;;4410958;32;20135;-67
2021/10/03 09:28:36;;;;;;;13.73;8.93;;;21.00;99.90;;;;;;4411323;32;20226;-69
2021/10/03 09:31:38;;;;;;;15.07;9.60;;;21.60;99.90;;;;;;4418790;32;20204;-68
2021/10/03 09:34:25;;;;;;;15.13;9.53;;;22.00;99.90;;;;;;4410238;32;20415;-66
2021/10/03 09:37:24;;;;;;;15.80;9.50;;;22.20;99.90;;;;;;4410487;32;20189;-67
2021/10/03 09:40:07;;;;;;;15.90;9.47;;;22.10;99.90;;;;;;4409254;32;20148;-67
2021/10/03 09:43:14;;;;;;;16.10;9.50;;;22.30;99.90;;;;;;4411283;32;20214;-67
2021/10/03 09:46:56;;;;;;;13.70;9.13;;;22.50;99.90;;;;;;4330651;33;20445;-67
2021/10/03 09:49:39;;;;;;;14.77;9.90;;;22.60;99.90;;;;;;4290078;33;20174;-68
2021/10/03 09:52:25;;;;;;;14.73;9.27;;;22.20;99.90;;;;;;4288938;33;20157;-67
2021/10/03 09:55:03;;;;;;;13.80;9.10;;;22.40;99.90;;;;;;4290533;33;20142;-67
2021/10/03 09:58:00;;;;;;;13.63;9.67;;;22.30;99.90;;;;;;4288279;33;20622;-67
2021/10/03 10:00:39;;;;;;;15.17;9.67;;;23.10;99.90;;;;;;4260566;33;20174;-67
2021/10/03 10:03:14;;;;;;;14.57;9.07;;;23.40;99.90;;;;;;4272568;33;20173;-67
2021/10/03 10:06:17;;;;;;;15.83;9.83;;;23.70;99.90;;;;;;4246110;33;20438;-67
2021/10/03 10:09:24;;;;;;;16.17;10.13;;;24.30;99.20;;;;;;4246022;33;20494;-67
2021/10/03 10:12:03;;;;;;;12.25;9.15;;;24.40;97.80;;;;;;4217826;34;20175;-66
2021/10/03 10:14:44;;;;;;;16.17;10.17;;;24.60;97.50;;;;;;4208382;34;20209;-68
2021/10/03 10:17:44;;;;;;;18.27;10.33;;;24.00;96.50;;;;;;4206834;34;20247;-68
2021/10/03 10:20:20;;;;;;;17.63;10.10;;;23.70;97.30;;;;;;4219068;34;20183;-68
2021/10/03 10:23:05;;;;;;;14.30;9.67;;;23.90;97.40;;;;;;4233337;33;20308;-68
2021/10/03 10:25:57;;;;;;;13.17;9.10;;;24.20;96.90;;;;;;4275905;33;20158;-68
2021/10/03 10:28:32;;;;;;;13.47;9.60;;;24.50;95.90;;;;;;4275960;33;20444;-68
2021/10/03 10:31:11;;;;;;;13.77;8.80;;;24.20;96.20;;;;;;4273645;33;20150;-67
2021/10/03 10:34:04;;;;;;;12.85;9.43;;;24.70;96.00;;;;;;4275263;33;20176;-66
2021/10/03 10:36:37;;;;;;;13.40;9.73;;;24.70;93.70;;;;;;4275774;33;20185;-67
2021/10/03 10:39:19;;;;;;;16.03;9.33;;;24.60;93.90;;;;;;4276001;33;20245;-67
2021/10/03 10:41:59;;;;;;;16.10;9.63;;;24.60;93.90;;;;;;4274259;33;20497;-68
2021/10/03 10:44:57;;;;;;;14.15;9.35;;;24.70;93.20;;;;;;4333475;33;20157;-67
2021/10/03 10:47:58;;;;;;;13.70;9.43;;;25.20;92.90;;;;;;4333321;33;20177;-67
2021/10/03 10:50:52;;;;;;;13.55;9.30;;;25.60;92.00;;;;;;4410651;32;20173;-67
2021/10/03 10:53:40;;;;;;;15.95;9.15;;;25.50;90.80;;;;;;4410709;32;20131;-67
2021/10/03 10:56:24;;;;;;;13.57;9.30;;;25.60;90.70;;;;;;4408609;32;20596;-66
2021/10/03 10:59:16;;;;;;;12.93;9.40;;;25.60;90.70;;;;;;4410136;32;20139;-67
2021/10/03 11:01:54;;;;;;;14.43;9.10;;;25.90;89.60;;;;;;4408633;32;20228;-66
2021/10/03 11:04:57;;;;;;;11.70;8.73;;;25.70;88.40;;;;;;4410501;32;20522;-66
2021/10/03 11:08:14;;;;;;;12.95;8.70;;;25.70;88.60;;;;;;4408611;32;20531;-67
2021/10/03 11:10:58;;;;;;;11.30;8.43;;;25.60;86.60;;;;;;4405035;32;20222;-66
2021/10/03 11:14:17;;;;;;;12.35;8.88;;;25.20;87.70;;;;;;4416891;32;20215;-68
2021/10/03 11:17:06;;;;;;;12.60;9.10;;;25.40;87.80;;;;;;4331932;33;20157;-66
2021/10/03 11:19:50;;;;;;;11.55;8.68;;;25.80;86.20;;;;;;4322399;33;20180;-67
2021/10/03 11:22:32;;;;;;;12.00;8.32;;;26.50;83.60;;;;;;4331502;33;20153;-67
2021/10/03 11:25:28;;;;;;;12.80;8.77;;;27.00;82.80;;;;;;4329530;33;20196;-66
2021/10/03 11:27:56;;;;;;;14.70;8.98;;;27.20;80.50;;;;;;4331196;33;20266;-66
2021/10/03 11:30:34;;;;;;;13.60;8.30;;;28.10;78.80;;;;;;4332949;33;20247;-66
2021/10/03 11:33:19;;;;;;;12.98;8.38;;;29.20;75.60;;;;;;4331589;33;20476;-67
2021/10/03 11:36:06;;;;;;;11.63;8.10;;;29.50;72.40;;;;;;4337674;33;20174;-66
2021/10/03 11:39:00;;;;;;;13.88;7.82;;;30.00;69.30;;;;;;4337638;33;20134;-66
2021/10/03 11:41:51;;;;;;;11.48;7.65;;;30.40;67.20;;;;;;4337910;33;20248;-67
2021/10/03 11:44:58;;;;;;;11.43;7.80;;;30.10;65.20;;;;;;4337743;33;20236;-67
2021/10/03 11:47:37;;;;;;;9.55;7.40;;;29.00;66.60;;;;;;4336005;33;20153;-67
2021/10/03 11:50:23;;;;;;;13.40;8.48;;;28.50;68.70;;;;;;4337820;33;20472;-66
2021/10/03 11:52:56;;;;;;;12.43;8.27;;;28.50;67.90;;;;;;4367169;32;20224;-66
2021/10/03 11:55:36;;;;;;;10.23;7.68;;;29.10;67.80;;;;;;4414460;32;20452;-66
2021/10/03 11:58:16;;;;;;;10.40;7.50;;;30.00;66.30;;;;;;4419838;32;20177;-66
2021/10/03 12:00:52;;;;;;;11.63;8.02;;;30.20;64.00;;;;;;4413578;32;20139;-67
2021/10/03 12:03:36;;;;;;;10.43;8.27;;;29.10;64.30;;;;;;4402058;32;20131;-67
2021/10/03 12:06:34;;;;;;;12.88;8.13;;;27.50;68.60;;;;;;4414747;32;20170;-67
2021/10/03 12:09:27;;;;;;;9.77;7.80;;;27.90;68.30;;;;;;4414924;32;20174;-66
2021/10/03 12:12:11;;;;;;;10.98;7.30;;;28.10;68.20;;;;;;4356477;32;20159;-67
2021/10/03 12:15:10;;;;;;;11.77;7.97;;;27.90;68.40;;;;;;4367515;32;20155;-66
2021/10/03 12:17:55;;;;;;;10.45;7.75;;;28.00;68.60;;;;;;4367458;32;20544;-67
2021/10/03 12:21:01;;;;;;;9.95;7.55;;;29.00;66.50;;;;;;4367389;32;20485;-67
2021/10/03 12:23:53;;;;;;;11.98;7.70;;;29.80;64.50;;;;;;4365729;32;20236;-66
2021/10/03 12:26:33;;;;;;;9.73;7.57;;;30.00;62.20;;;;;;4366908;32;20590;-66
2021/10/03 12:29:08;;;;;;;11.98;7.43;;;29.40;63.50;;;;;;4375250;32;20197;-67
2021/10/03 12:32:17;;;;;;;10.07;7.60;;;29.90;64.00;;;;;;4367308;32;20143;-66
2021/10/03 12:35:04;;;;;;;9.35;7.28;;;29.90;61.90;;;;;;4365512;33;20198;-67
2021/10/03 12:37:43;;;;;;;9.82;7.40;;;29.70;62.30;;;;;;4367372;32;20406;-68
2021/10/03 12:40:59;;;;;;;10.90;7.05;;;29.50;62.50;;;;;;4322606;33;20141;-68
2021/10/03 12:43:27;;;;;;;12.07;6.87;;;29.30;63.00;;;;;;4341036;33;20137;-67
2021/10/03 12:45:59;;;;;;;11.15;7.32;;;28.30;66.20;;;;;;4349940;33;20180;-66
2021/10/03 12:48:39;;;;;;;12.85;7.72;;;28.30;66.60;;;;;;4350049;33;20553;-66
2021/10/03 12:51:14;;;;;;;11.68;7.78;;;28.10;66.50;;;;;;4348485;33;20240;-67
2021/10/03 12:53:47;;;;;;;12.88;7.45;;;27.80;67.90;;;;;;4348319;33;20160;-67
2021/10/03 12:56:25;;;;;;;11.63;8.18;;;27.50;69.00;;;;;;4347974;33;20169;-68
2021/10/03 12:58:59;;;;;;;12.02;8.02;;;27.00;70.10;;;;;;4349450;33;20151;-67
2021/10/03 13:01:35;;;;;;;13.15;8.10;;;26.00;72.50;;;;;;4347741;33;20175;-68
2021/10/03 13:04:27;;;;;;;11.27;8.05;;;24.80;75.10;;;;;;4346661;33;20250;-69
2021/10/03 13:07:14;;;;;;;14.70;8.23;;;23.80;79.00;;;;;;4347828;33;20145;-68
2021/10/03 13:09:44;;;;;;;13.60;8.00;;;23.00;82.60;;;;;;4360335;32;20219;-67
2021/10/03 13:12:38;;;;;;;12.40;8.37;;;22.60;85.20;;;;;;4348117;33;20435;-68
2021/10/03 13:18:48;;;;;;;13.27;7.83;;;22.00;90.00;;;;;;4398915;32;20136;-69
2021/10/03 13:21:27;;;;;;;15.13;7.93;;;21.70;90.40;;;;;;4409897;32;20151;-68
2021/10/03 13:24:12;;;;;;;12.67;7.60;;;21.50;91.40;;;;;;4411840;32;20163;-68
2021/10/03 13:26:44;;;;;;;12.27;7.83;;;21.20;92.00;;;;;;4409462;32;20153;-68
2021/10/03 13:29:45;;;;;;;13.43;7.57;;;20.90;92.40;;;;;;4411841;32;20161;-67
2021/10/03 13:32:35;;;;;;;12.47;8.17;;;20.60;93.30;;;;;;4409210;32;20181;-68
2021/10/03 13:35:13;;;;;;;13.00;7.10;;;20.30;94.10;;;;;;4408914;32;20250;-69
2021/10/03 13:38:13;;;;;;;11.03;7.53;;;20.10;94.90;;;;;;4410039;32;20131;-68
2021/10/03 13:40:43;;;;;;;12.07;7.53;;;20.00;95.90;;;;;;4411349;32;20132;-68
2021/10/03 13:43:33;;;;;;;11.07;7.97;;;20.00;96.40;;;;;;4411009;32;20136;-68
2021/10/03 13:46:30;;;;;;;11.83;7.70;;;19.80;96.90;;;;;;4409412;32;20148;-68
2021/10/03 13:49:23;;;;;;;11.23;7.53;;;19.70;97.10;;;;;;4332762;33;20175;-68
2021/10/03 13:52:12;;;;;;;10.40;7.17;;;19.60;98.00;;;;;;4334515;33;20484;-68
2021/10/03 13:54:54;;;;;;;10.57;7.87;;;19.60;98.20;;;;;;4334399;33;20142;-68
2021/10/03 13:57:24;;;;;;;12.13;7.77;;;19.50;98.70;;;;;;4331621;33;20235;-68
2021/10/03 14:00:20;;;;;;;13.53;7.87;;;19.40;99.60;;;;;;4332398;33;20170;-67
2021/10/03 14:02:50;;;;;;;12.30;7.13;;;19.40;99.50;;;;;;4332333;33;20191;-68
2021/10/03 14:05:32;;;;;;;10.90;7.27;;;19.30;99.70;;;;;;4332569;33;20211;-68
2021/10/03 14:08:27;;;;;;;11.70;7.60;;;19.10;99.90;;;;;;4334193;33;20153;-68
2021/10/03 14:11:14;;;;;;;12.80;7.50;;;19.00;99.90;;;;;;4333909;33;20140;-68
2021/10/03 14:14:07;;;;;;;12.33;7.50;;;19.00;99.90;;;;;;4333071;33;20161;-68